Time;durP1;ratioP1;P1;durP2;ratioP2;P2;SDS_P1;SDS_P2;PMS_P1;PMS_P2;Temp;Humidity;BMP_temperature;BMP_pressure;BME280_temperature;BME280_humidity;BME280_pressure;Samples;Min_cycle;Max_cycle;Signal;HPM_P1;HPM_P2
2021/09/13 02:47:58;;;;;;;13.68;10.75;;;18.80;99.50;;;;;;4723420;30;20071;-80
2021/09/13 02:50:24;;;;;;;12.60;10.82;;;18.80;99.30;;;;;;4728183;30;20153;-80
2021/09/13 02:52:50;;;;;;;12.20;10.85;;;18.80;99.70;;;;;;4714023;30;20032;-80
2021/09/13 02:55:18;;;;;;;14.52;12.20;;;18.80;99.90;;;;;;4728703;30;20033;-80
2021/09/13 02:57:43;;;;;;;12.30;10.32;;;18.80;99.70;;;;;;4743701;30;20056;-80
2021/09/13 03:00:10;;;;;;;15.73;11.32;;;18.80;99.50;;;;;;4728720;30;20033;-80
2021/09/13 03:02:43;;;;;;;10.50;9.25;;;18.80;99.90;;;;;;4728837;30;20409;-80
2021/09/13 03:05:10;;;;;;;15.20;10.93;;;18.80;99.50;;;;;;4743470;30;20081;-80
2021/09/13 03:07:38;;;;;;;16.05;9.57;;;18.80;99.20;;;;;;4743540;30;20041;-80
2021/09/13 03:10:05;;;;;;;14.95;10.98;;;18.80;99.00;;;;;;4728971;30;20096;-82
2021/09/13 03:12:34;;;;;;;14.48;10.82;;;18.80;99.20;;;;;;4743330;30;20040;-80
2021/09/13 03:15:03;;;;;;;12.25;10.35;;;18.80;99.40;;;;;;4728820;30;20053;-80
2021/09/13 03:17:29;;;;;;;12.20;10.57;;;18.80;99.20;;;;;;4713912;30;20040;-81
2021/09/13 03:19:57;;;;;;;14.05;11.75;;;18.80;99.20;;;;;;4742750;30;20025;-80
2021/09/13 03:22:22;;;;;;;13.93;10.95;;;18.80;99.70;;;;;;4742654;30;20063;-80
2021/09/13 03:24:49;;;;;;;14.93;11.10;;;18.80;99.90;;;;;;4714169;30;20021;-80
2021/09/13 03:27:15;;;;;;;11.50;10.32;;;18.80;99.90;;;;;;4714196;30;20113;-80
2021/09/13 03:29:41;;;;;;;12.27;9.75;;;18.90;99.90;;;;;;4743135;30;20036;-80
2021/09/13 03:32:07;;;;;;;11.50;10.30;;;18.90;99.80;;;;;;4728127;30;20041;-80
2021/09/13 03:34:33;;;;;;;11.80;10.15;;;18.90;99.40;;;;;;4728500;30;20037;-80
2021/09/13 03:37:01;;;;;;;14.98;11.70;;;18.90;99.20;;;;;;4728572;30;20362;-80
2021/09/13 03:39:29;;;;;;;13.07;10.77;;;18.80;99.20;;;;;;4728051;30;20040;-80
2021/09/13 03:41:55;;;;;;;11.75;10.02;;;18.70;98.90;;;;;;4728361;30;20289;-80
2021/09/13 03:44:24;;;;;;;13.18;10.75;;;18.70;98.70;;;;;;4714143;30;20375;-80
2021/09/13 03:46:53;;;;;;;13.40;10.80;;;18.60;98.40;;;;;;4754434;30;20060;-80
2021/09/13 03:49:39;;;;;;;14.15;11.43;;;18.60;98.30;;;;;;4745483;30;20240;-81
2021/09/13 03:52:08;;;;;;;13.43;11.30;;;18.50;98.40;;;;;;4731318;30;20028;-80
2021/09/13 03:54:38;;;;;;;22.08;13.13;;;18.50;98.40;;;;;;4731035;30;20062;-81
2021/09/13 03:57:06;;;;;;;13.27;11.40;;;18.40;98.50;;;;;;4731215;30;20349;-80
2021/09/13 03:59:32;;;;;;;15.15;11.68;;;18.30;98.60;;;;;;4731071;30;20075;-80
2021/09/13 04:01:59;;;;;;;17.13;12.70;;;18.30;98.60;;;;;;4745392;30;20029;-80
2021/09/13 04:04:28;;;;;;;17.23;12.40;;;18.20;98.60;;;;;;4730667;30;20355;-80
2021/09/13 04:07:02;;;;;;;13.68;10.93;;;18.20;98.80;;;;;;4745379;30;20040;-80
2021/09/13 04:10:00;;;;;;;14.07;11.93;;;18.20;98.80;;;;;;4733189;30;20047;-80
2021/09/13 04:12:52;;;;;;;16.85;12.45;;;18.10;98.70;;;;;;4726970;30;20104;-80
2021/09/13 04:15:43;;;;;;;16.45;13.85;;;18.10;98.60;;;;;;4710427;30;20112;-80
2021/09/13 04:18:35;;;;;;;19.42;16.02;;;18.00;98.90;;;;;;4715573;30;20265;-80
2021/09/13 04:21:19;;;;;;;15.45;12.95;;;17.90;99.30;;;;;;4726879;30;20052;-80
2021/09/13 04:24:04;;;;;;;16.05;11.88;;;18.00;99.40;;;;;;4714831;30;20366;-80
2021/09/13 04:26:54;;;;;;;16.63;12.85;;;17.90;99.10;;;;;;4701098;30;20056;-80
2021/09/13 04:29:23;;;;;;;19.60;14.43;;;17.90;99.10;;;;;;4712947;30;20468;-80
2021/09/13 04:32:08;;;;;;;23.63;13.52;;;17.90;98.90;;;;;;4714467;30;20029;-80
2021/09/13 04:35:01;;;;;;;17.95;12.95;;;17.90;98.80;;;;;;4712285;30;20319;-80
2021/09/13 04:37:53;;;;;;;21.52;16.20;;;17.90;98.60;;;;;;4697949;30;20229;-80
2021/09/13 04:40:47;;;;;;;18.70;12.50;;;17.90;98.80;;;;;;4674612;30;20113;-80
2021/09/13 04:43:33;;;;;;;17.13;12.40;;;18.00;98.80;;;;;;4674447;30;20109;-80
2021/09/13 04:46:19;;;;;;;15.73;12.45;;;18.00;98.60;;;;;;4660526;30;20353;-80
2021/09/13 04:49:11;;;;;;;17.10;12.65;;;18.00;98.50;;;;;;4667538;30;20031;-80
2021/09/13 04:51:55;;;;;;;18.73;12.25;;;18.00;98.50;;;;;;4662044;30;20113;-80
2021/09/13 04:54:36;;;;;;;16.40;13.15;;;18.00;98.50;;;;;;4660108;30;20046;-80
2021/09/13 04:57:03;;;;;;;15.47;13.03;;;18.00;98.50;;;;;;4646200;30;20133;-81
2021/09/13 04:59:29;;;;;;;17.60;13.27;;;18.10;98.50;;;;;;4646441;30;20034;-80
2021/09/13 05:01:55;;;;;;;19.48;14.77;;;18.10;98.90;;;;;;4669659;30;20148;-80
2021/09/13 05:04:23;;;;;;;18.17;12.95;;;18.10;98.70;;;;;;4676080;30;20042;-80
2021/09/13 05:06:50;;;;;;;25.65;15.70;;;18.20;98.80;;;;;;4677631;30;20085;-80
2021/09/13 05:09:16;;;;;;;16.92;13.18;;;18.20;99.10;;;;;;4691430;30;20037;-80
2021/09/13 05:11:42;;;;;;;18.75;12.35;;;18.40;99.90;;;;;;4691425;30;20069;-80
2021/09/13 05:14:12;;;;;;;23.08;11.93;;;18.80;99.90;;;;;;4677333;30;20042;-81
2021/09/13 05:16:39;;;;;;;19.45;12.40;;;19.00;99.70;;;;;;4702972;30;20067;-81
2021/09/13 05:19:05;;;;;;;;;;;19.10;99.40;;;;;;4738696;30;20025;-80
2021/09/13 05:21:37;;;;;;;14.45;11.02;;;19.10;99.10;;;;;;4741324;30;19911;-80
2021/09/13 05:24:04;;;;;;;17.52;12.02;;;19.20;99.10;;;;;;4741530;30;20227;-80
2021/09/13 05:26:33;;;;;;;21.55;13.00;;;19.20;99.00;;;;;;4741549;30;20294;-80
2021/09/13 05:28:59;;;;;;;18.48;11.95;;;19.30;98.80;;;;;;4758481;30;20043;-80
2021/09/13 05:31:26;;;;;;;18.67;10.52;;;19.40;98.70;;;;;;4744530;30;20021;-81
2021/09/13 05:33:52;;;;;;;17.33;10.48;;;19.40;98.40;;;;;;4744089;30;20093;-80
2021/09/13 05:36:18;;;;;;;20.05;13.07;;;19.40;98.10;;;;;;4744800;30;20033;-81
2021/09/13 05:38:45;;;;;;;19.25;12.93;;;19.50;98.20;;;;;;4758737;30;20032;-81
2021/09/13 05:41:39;;;;;;;18.30;11.95;;;19.50;98.10;;;;;;4754458;30;20355;-81
2021/09/13 05:44:06;;;;;;;18.80;12.10;;;19.60;97.90;;;;;;4743895;30;20336;-81
2021/09/13 05:46:33;;;;;;;16.02;12.18;;;19.70;97.90;;;;;;4758084;30;20053;-81
2021/09/13 05:49:00;;;;;;;23.13;13.77;;;19.70;97.80;;;;;;4743945;30;20029;-80
2021/09/13 05:51:26;;;;;;;17.33;12.68;;;19.70;98.10;;;;;;4758102;30;20028;-80
2021/09/13 05:53:52;;;;;;;21.13;12.30;;;19.80;98.10;;;;;;4760885;30;20060;-81
2021/09/13 05:56:18;;;;;;;18.45;13.45;;;19.90;97.80;;;;;;4744109;30;20064;-80
2021/09/13 05:58:43;;;;;;;21.10;12.80;;;20.00;97.90;;;;;;4743821;30;20028;-81
2021/09/13 06:01:10;;;;;;;21.13;13.50;;;20.10;97.60;;;;;;4758408;30;20108;-80
2021/09/13 06:03:36;;;;;;;21.15;13.18;;;20.10;97.60;;;;;;4758657;30;20295;-80
2021/09/13 06:06:29;;;;;;;20.90;13.10;;;20.10;97.60;;;;;;4685110;30;20117;-80
2021/09/13 06:08:56;;;;;;;22.98;13.75;;;20.20;97.60;;;;;;4659357;30;20036;-80
2021/09/13 06:11:26;;;;;;;19.98;12.55;;;20.20;97.70;;;;;;4673623;30;20042;-81
2021/09/13 06:13:52;;;;;;;19.95;13.40;;;20.30;97.50;;;;;;4659512;30;20030;-80
2021/09/13 06:16:18;;;;;;;19.23;13.83;;;20.40;97.50;;;;;;4663979;30;20042;-80
2021/09/13 06:18:48;;;;;;;19.70;12.23;;;20.50;97.30;;;;;;4662395;30;20038;-81
2021/09/13 06:21:16;;;;;;;23.15;12.75;;;20.60;97.10;;;;;;4662430;30;20035;-80
2021/09/13 06:23:44;;;;;;;25.70;12.82;;;20.70;96.80;;;;;;4662526;30;20038;-81
2021/09/13 06:26:12;;;;;;;20.15;10.95;;;20.70;96.30;;;;;;4662325;30;20042;-80
2021/09/13 06:28:43;;;;;;;21.23;11.00;;;20.80;96.30;;;;;;4662475;30;20035;-81
2021/09/13 06:31:09;;;;;;;19.60;10.70;;;20.90;96.00;;;;;;4662248;30;20105;-80
2021/09/13 06:33:36;;;;;;;23.92;11.57;;;21.00;95.80;;;;;;4660081;30;20033;-81
2021/09/13 06:36:03;;;;;;;22.88;10.18;;;21.10;95.80;;;;;;4645739;30;20094;-81
2021/09/13 06:38:31;;;;;;;16.05;9.65;;;21.20;95.40;;;;;;4645522;30;20027;-81
2021/09/13 06:40:59;;;;;;;15.52;9.82;;;21.40;95.10;;;;;;4673784;30;20322;-81
2021/09/13 06:43:27;;;;;;;18.27;9.68;;;21.50;94.60;;;;;;4693246;30;20037;-81
2021/09/13 06:46:14;;;;;;;22.13;9.68;;;21.50;94.50;;;;;;4746110;30;20075;-81
2021/09/13 06:48:44;;;;;;;21.67;9.75;;;21.60;94.30;;;;;;4746307;30;20037;-80
2021/09/13 06:51:10;;;;;;;;;;;21.70;94.20;;;;;;4746906;30;20312;-81
2021/09/13 06:53:36;;;;;;;15.80;9.60;;;21.70;94.40;;;;;;4761267;30;19936;-80
2021/09/13 06:56:04;;;;;;;20.10;10.80;;;21.80;94.30;;;;;;4761826;30;20332;-80
2021/09/13 06:58:29;;;;;;;18.90;8.88;;;21.90;94.10;;;;;;4746034;30;20084;-81
2021/09/13 07:00:56;;;;;;;18.75;8.48;;;22.00;94.10;;;;;;4730841;30;20037;-80
2021/09/13 07:03:22;;;;;;;16.52;7.80;;;22.10;93.50;;;;;;4746359;30;20236;-81
2021/09/13 07:05:49;;;;;;;9.27;7.27;;;22.20;93.50;;;;;;4745950;30;20036;-80
2021/09/13 07:08:15;;;;;;;;;;;22.20;93.20;;;;;;4747699;30;20041;-80
2021/09/13 07:10:41;;;;;;;13.03;8.23;;;22.40;92.90;;;;;;4731504;30;19914;-81
2021/09/13 07:13:08;;;;;;;10.40;8.45;;;22.50;92.60;;;;;;4731568;30;20112;-81
2021/09/13 07:15:34;;;;;;;11.10;7.33;;;22.50;92.50;;;;;;4731607;30;20036;-80
2021/09/13 07:18:01;;;;;;;12.45;7.70;;;22.60;92.60;;;;;;4746847;30;20318;-81
2021/09/13 07:20:27;;;;;;;17.45;7.30;;;22.70;92.30;;;;;;4760704;30;20032;-80
2021/09/13 07:22:52;;;;;;;10.25;6.78;;;22.70;91.90;;;;;;4745998;30;20060;-81
2021/09/13 07:25:18;;;;;;;13.88;6.72;;;22.90;91.70;;;;;;4746223;30;20055;-81
2021/09/13 07:27:44;;;;;;;8.63;6.50;;;23.00;91.60;;;;;;4760017;30;20068;-81
2021/09/13 07:30:11;;;;;;;12.85;6.80;;;23.10;91.30;;;;;;4745353;30;20047;-81
2021/09/13 07:32:38;;;;;;;10.13;6.20;;;23.20;91.10;;;;;;4760381;30;20029;-82
2021/09/13 07:35:06;;;;;;;8.82;6.38;;;23.30;90.80;;;;;;4745740;30;20085;-81
2021/09/13 07:37:36;;;;;;;10.88;7.03;;;23.40;90.70;;;;;;4760519;30;20048;-81
2021/09/13 07:40:04;;;;;;;16.27;6.82;;;23.40;90.00;;;;;;4760111;30;20036;-82
2021/09/13 07:42:29;;;;;;;9.10;6.35;;;23.50;90.30;;;;;;4746128;30;20036;-81
2021/09/13 07:44:55;;;;;;;7.78;6.20;;;23.60;90.00;;;;;;4744919;30;20075;-81
2021/09/13 07:47:22;;;;;;;6.63;5.68;;;23.70;89.00;;;;;;4749553;30;20057;-81
2021/09/13 07:49:48;;;;;;;;;;;23.80;87.30;;;;;;4745057;30;20388;-81
2021/09/13 07:52:14;;;;;;;10.40;5.77;;;23.80;87.00;;;;;;4759704;30;20079;-81
2021/09/13 07:54:40;;;;;;;11.50;4.88;;;24.00;86.70;;;;;;4746055;30;20411;-81
2021/09/13 07:57:06;;;;;;;7.30;5.45;;;24.00;84.90;;;;;;4744605;30;20088;-81
2021/09/13 07:59:31;;;;;;;11.52;5.75;;;24.20;84.20;;;;;;4744688;30;20028;-81
2021/09/13 08:01:57;;;;;;;10.57;5.15;;;24.30;84.00;;;;;;4744692;30;20032;-81
2021/09/13 08:04:23;;;;;;;6.65;4.72;;;24.40;83.50;;;;;;4744872;30;20037;-81
2021/09/13 08:06:49;;;;;;;6.80;4.97;;;24.50;82.00;;;;;;4730154;30;20232;-81
2021/09/13 08:09:14;;;;;;;5.43;4.82;;;24.60;80.50;;;;;;4744663;30;20104;-81
2021/09/13 08:11:40;;;;;;;6.57;4.93;;;24.60;82.70;;;;;;4759145;30;20086;-81
2021/09/13 08:14:07;;;;;;;6.20;4.75;;;24.60;81.20;;;;;;4730122;30;20315;-81
2021/09/13 08:16:33;;;;;;;5.72;4.75;;;24.70;80.80;;;;;;4738002;30;20028;-81
2021/09/13 08:19:00;;;;;;;5.70;4.77;;;24.80;80.10;;;;;;4741986;30;20036;-82
2021/09/13 08:21:27;;;;;;;5.68;5.18;;;25.00;80.10;;;;;;4758412;30;20354;-79
2021/09/13 08:23:56;;;;;;;6.95;4.68;;;25.20;79.20;;;;;;4746018;30;20060;-78
2021/09/13 08:26:23;;;;;;;6.20;4.65;;;25.30;77.70;;;;;;4744165;30;20042;-78
2021/09/13 08:28:49;;;;;;;8.73;5.25;;;25.60;77.70;;;;;;4744190;30;20082;-77
2021/09/13 08:31:15;;;;;;;11.00;6.18;;;25.70;76.10;;;;;;4742721;30;20275;-77
2021/09/13 08:33:40;;;;;;;19.63;7.40;;;25.60;74.20;;;;;;4744572;30;20028;-77
2021/09/13 08:36:07;;;;;;;23.23;9.57;;;25.80;75.20;;;;;;4743008;30;20086;-77
2021/09/13 08:38:33;;;;;;;11.57;6.07;;;26.00;74.20;;;;;;4739597;30;20100;-78
2021/09/13 08:40:59;;;;;;;11.85;5.63;;;26.00;71.60;;;;;;4725535;30;20037;-78
2021/09/13 08:43:27;;;;;;;9.52;5.10;;;25.90;73.00;;;;;;4725369;30;20140;-77
2021/09/13 08:53:17;;;;;;;7.20;4.40;;;26.90;70.80;;;;;;4764153;30;20315;-77
2021/09/13 08:55:45;;;;;;;6.00;4.13;;;26.90;69.70;;;;;;4760736;30;20266;-77
2021/09/13 08:58:15;;;;;;;10.95;4.70;;;27.00;70.10;;;;;;4732097;30;20060;-77
2021/09/13 09:00:42;;;;;;;9.40;4.43;;;27.10;68.70;;;;;;4738972;30;20119;-77
2021/09/13 09:03:09;;;;;;;7.65;4.45;;;27.20;68.80;;;;;;4744250;30;20043;-77
2021/09/13 09:05:54;;;;;;;4.53;3.90;;;27.30;68.30;;;;;;4761512;30;20026;-77
2021/09/13 09:08:28;;;;;;;4.45;3.83;;;27.40;68.00;;;;;;4764835;30;20028;-78
2021/09/13 09:11:01;;;;;;;4.93;4.18;;;27.50;68.10;;;;;;4761750;30;20028;-77
2021/09/13 09:13:41;;;;;;;4.97;4.07;;;27.60;66.40;;;;;;4761623;30;20055;-77
2021/09/13 09:16:08;;;;;;;4.55;3.70;;;27.70;66.00;;;;;;4761276;30;20039;-78
2021/09/13 09:18:48;;;;;;;6.07;4.43;;;27.70;66.10;;;;;;4757386;30;20323;-78
2021/09/13 09:21:34;;;;;;;4.85;3.70;;;27.70;67.40;;;;;;4728385;30;20040;-77
2021/09/13 09:24:05;;;;;;;6.45;3.72;;;27.80;66.10;;;;;;4743851;30;20040;-78
2021/09/13 09:26:32;;;;;;;6.35;3.72;;;27.90;66.20;;;;;;4754417;30;20032;-78
2021/09/13 09:28:58;;;;;;;;;;;27.90;65.00;;;;;;4760880;30;20043;-77
2021/09/13 09:31:40;;;;;;;5.20;3.72;;;28.10;66.10;;;;;;4760330;30;19910;-78
2021/09/13 09:34:17;;;;;;;5.53;3.78;;;28.30;63.30;;;;;;4760744;30;20036;-78
2021/09/13 09:36:58;;;;;;;8.75;3.15;;;28.20;63.90;;;;;;4727900;30;20062;-78
2021/09/13 09:39:49;;;;;;;7.28;3.65;;;28.20;61.60;;;;;;4728093;30;20047;-77
2021/09/13 09:42:36;;;;;;;6.40;3.47;;;28.30;63.20;;;;;;4728026;30;20115;-78
2021/09/13 09:45:22;;;;;;;7.90;3.17;;;28.20;59.60;;;;;;4728222;30;20050;-77
2021/09/13 09:48:04;;;;;;;5.07;3.57;;;28.20;59.20;;;;;;4758305;30;20236;-78
2021/09/13 09:50:30;;;;;;;8.13;3.67;;;28.00;58.40;;;;;;4762957;30;20274;-77
2021/09/13 09:53:16;;;;;;;4.63;3.75;;;27.90;61.60;;;;;;4758421;30;20087;-77
2021/09/13 09:55:43;;;;;;;9.45;3.70;;;28.00;60.60;;;;;;4759833;30;20032;-77
2021/09/13 09:58:13;;;;;;;4.68;3.30;;;28.10;59.30;;;;;;4764599;30;20059;-78
2021/09/13 10:00:39;;;;;;;7.10;3.33;;;28.10;60.10;;;;;;4764655;30;20040;-77
2021/09/13 10:03:06;;;;;;;7.30;3.58;;;28.10;60.00;;;;;;4764604;30;20035;-78
2021/09/13 10:05:33;;;;;;;4.03;3.30;;;28.00;58.40;;;;;;4763680;30;20323;-77
2021/09/13 10:07:59;;;;;;;9.60;3.35;;;28.00;58.40;;;;;;4749542;30;20077;-77
2021/09/13 10:10:30;;;;;;;6.13;3.63;;;28.10;60.50;;;;;;4762579;30;20028;-78
2021/09/13 10:13:01;;;;;;;9.15;3.30;;;28.30;59.60;;;;;;4763495;30;20278;-78
2021/09/13 10:15:28;;;;;;;6.65;3.67;;;28.50;60.00;;;;;;4764479;30;20035;-77
2021/09/13 10:17:54;;;;;;;4.82;3.50;;;28.70;59.70;;;;;;4764501;30;20058;-78
2021/09/13 10:20:22;;;;;;;4.17;3.77;;;28.60;59.30;;;;;;4764636;30;20038;-77
2021/09/13 10:22:51;;;;;;;4.60;3.53;;;28.50;58.50;;;;;;4764588;30;20099;-77
2021/09/13 10:25:18;;;;;;;6.68;3.33;;;28.50;59.30;;;;;;4777636;30;20043;-77
2021/09/13 10:27:47;;;;;;;3.97;3.30;;;28.70;58.30;;;;;;4762837;30;20055;-78
2021/09/13 10:30:19;;;;;;;8.63;3.20;;;28.80;57.10;;;;;;4748398;30;20339;-77
2021/09/13 10:33:08;;;;;;;2.88;2.67;;;29.00;57.70;;;;;;4763738;30;20038;-77
2021/09/13 10:35:54;;;;;;;3.25;2.95;;;29.20;55.20;;;;;;4748120;30;20032;-77
2021/09/13 10:38:41;;;;;;;5.68;2.75;;;29.20;54.10;;;;;;4763835;30;20063;-77
2021/09/13 10:41:07;;;;;;;6.45;3.05;;;29.30;54.20;;;;;;4748184;30;20099;-77
2021/09/13 10:43:32;;;;;;;7.63;3.77;;;29.30;54.30;;;;;;4748067;30;20040;-77
2021/09/13 10:45:58;;;;;;;4.37;3.77;;;29.30;54.80;;;;;;4748020;30;20251;-78
2021/09/13 10:48:24;;;;;;;10.93;3.70;;;29.20;54.90;;;;;;4761278;30;20024;-78
2021/09/13 10:50:54;;;;;;;5.13;2.93;;;29.20;55.80;;;;;;4764123;30;20204;-77
2021/09/13 10:53:20;;;;;;;6.20;2.92;;;29.20;55.20;;;;;;4774115;30;20223;-78
2021/09/13 10:55:51;;;;;;;4.03;2.63;;;29.20;53.80;;;;;;4751019;30;20059;-78
2021/09/13 10:58:46;;;;;;;3.83;2.58;;;29.20;51.60;;;;;;4747368;30;20040;-78
2021/09/13 11:01:17;;;;;;;6.63;2.15;;;29.20;51.70;;;;;;4730829;30;20092;-78
2021/09/13 11:03:48;;;;;;;5.00;2.85;;;29.30;50.80;;;;;;4729941;30;20036;-78
2021/09/13 11:06:14;;;;;;;3.33;2.47;;;29.40;53.10;;;;;;4737632;30;20050;-77
2021/09/13 11:08:43;;;;;;;;;;;29.60;52.60;;;;;;4754472;30;20024;-78
2021/09/13 11:11:13;;;;;;;4.85;3.42;;;29.80;53.70;;;;;;4752231;30;19917;-78
2021/09/13 11:13:40;;;;;;;5.55;2.83;;;29.90;54.00;;;;;;4758965;30;20032;-78
2021/09/13 11:16:06;;;;;;;6.25;3.03;;;30.10;51.90;;;;;;4761052;30;20100;-77
2021/09/13 11:18:35;;;;;;;;;;;30.00;52.40;;;;;;4754443;30;20051;-78
2021/09/13 11:21:28;;;;;;;5.90;2.65;;;29.80;53.50;;;;;;4746756;30;19906;-78
2021/09/13 11:24:09;;;;;;;3.40;3.00;;;29.80;53.30;;;;;;4757357;30;20029;-77
2021/09/13 11:26:48;;;;;;;4.60;2.45;;;29.80;53.90;;;;;;4741712;30;20028;-77
2021/09/13 11:29:25;;;;;;;5.25;2.92;;;29.70;52.40;;;;;;4746684;30;20236;-78
2021/09/13 11:31:54;;;;;;;5.55;3.00;;;29.60;53.20;;;;;;4762125;30;20024;-77
2021/09/13 11:34:28;;;;;;;4.10;3.05;;;29.60;54.40;;;;;;4747195;30;20091;-77
2021/09/13 11:36:56;;;;;;;4.28;3.03;;;29.90;54.20;;;;;;4747207;30;20043;-79
2021/09/13 11:39:25;;;;;;;27.70;4.85;;;29.90;51.50;;;;;;4747031;30;20373;-77
2021/09/13 11:41:55;;;;;;;4.35;2.97;;;29.90;53.20;;;;;;4746752;30;20034;-77
2021/09/13 11:44:21;;;;;;;12.00;3.95;;;29.80;52.90;;;;;;4741565;30;20081;-78
2021/09/13 11:46:51;;;;;;;6.85;2.95;;;29.90;53.10;;;;;;4758112;30;20122;-77
2021/09/13 11:49:19;;;;;;;7.30;2.80;;;30.10;52.10;;;;;;4759295;30;20036;-78
2021/09/13 11:52:28;;;;;;;8.93;2.88;;;30.10;51.50;;;;;;4758101;30;20132;-79
2021/09/13 11:55:00;;;;;;;7.45;3.20;;;30.30;52.70;;;;;;4697010;30;20041;-78
2021/09/13 11:57:47;;;;;;;4.90;2.60;;;30.50;50.90;;;;;;4710746;30;20054;-78
2021/09/13 12:00:13;;;;;;;3.28;2.60;;;30.20;50.40;;;;;;4685502;30;20050;-76
2021/09/13 12:02:47;;;;;;;4.07;3.07;;;30.10;51.40;;;;;;4681812;30;20072;-77
2021/09/13 12:05:21;;;;;;;4.22;3.22;;;30.20;51.00;;;;;;4673650;30;20142;-77
2021/09/13 12:07:49;;;;;;;6.18;3.03;;;30.30;51.50;;;;;;4677698;30;20137;-78
2021/09/13 12:10:21;;;;;;;9.43;2.70;;;30.20;51.40;;;;;;4688892;30;20051;-77
2021/09/13 12:12:50;;;;;;;4.50;2.50;;;30.20;50.90;;;;;;4686860;30;20284;-77
2021/09/13 12:15:17;;;;;;;3.85;2.78;;;30.20;50.40;;;;;;4693157;30;20230;-78
2021/09/13 12:17:52;;;;;;;4.15;2.40;;;30.10;50.80;;;;;;4694510;30;20054;-77
2021/09/13 12:20:29;;;;;;;6.28;2.63;;;30.20;50.50;;;;;;4693236;30;20030;-77
2021/09/13 12:23:02;;;;;;;3.80;2.80;;;30.10;51.40;;;;;;4690389;30;20081;-77
2021/09/13 12:25:36;;;;;;;6.45;2.88;;;30.30;51.90;;;;;;4691103;30;20056;-77
2021/09/13 12:28:02;;;;;;;5.88;2.70;;;30.40;50.20;;;;;;4675954;30;20038;-77
2021/09/13 12:30:31;;;;;;;8.57;2.67;;;30.40;50.80;;;;;;4702846;30;20033;-78
2021/09/13 12:33:03;;;;;;;5.28;3.10;;;30.50;49.60;;;;;;4716730;30;20123;-76
2021/09/13 12:36:12;;;;;;;3.25;2.25;;;30.50;50.40;;;;;;4708156;30;20060;-77
2021/09/13 12:38:41;;;;;;;6.05;2.75;;;30.60;50.40;;;;;;4690973;30;20069;-77
2021/09/13 12:41:07;;;;;;;4.60;2.65;;;30.60;49.30;;;;;;4691010;30;20054;-77
2021/09/13 12:43:40;;;;;;;17.20;2.60;;;30.50;48.80;;;;;;4695472;30;20037;-77
2021/09/13 12:46:14;;;;;;;3.00;2.53;;;30.60;49.00;;;;;;4692795;30;20073;-77
2021/09/13 12:48:49;;;;;;;4.03;3.33;;;30.70;49.60;;;;;;4707931;30;20122;-77
2021/09/13 12:51:23;;;;;;;3.72;2.83;;;30.50;50.30;;;;;;4707963;30;20295;-77
2021/09/13 12:54:00;;;;;;;3.25;2.63;;;30.50;49.50;;;;;;4710504;30;20065;-77
2021/09/13 12:56:31;;;;;;;2.92;2.28;;;30.60;50.10;;;;;;4705942;30;20045;-77
2021/09/13 12:59:18;;;;;;;6.20;3.22;;;30.60;50.60;;;;;;4707446;30;20042;-77
2021/09/13 13:01:46;;;;;;;3.20;2.55;;;30.50;48.60;;;;;;4701208;30;20055;-77
2021/09/13 13:04:13;;;;;;;4.43;2.28;;;30.50;48.70;;;;;;4693344;30;20034;-77
2021/09/13 13:06:42;;;;;;;5.78;2.90;;;30.50;48.80;;;;;;4707632;30;20367;-76
2021/09/13 13:09:11;;;;;;;3.58;2.58;;;30.60;48.80;;;;;;4692986;30;20045;-77
2021/09/13 13:11:39;;;;;;;4.95;2.70;;;30.70;47.90;;;;;;4706862;30;20029;-77
2021/09/13 13:14:06;;;;;;;4.75;3.15;;;30.50;48.60;;;;;;4729726;30;20362;-77
2021/09/13 13:16:44;;;;;;;4.07;2.67;;;30.50;48.90;;;;;;4760797;30;20044;-77
2021/09/13 13:19:11;;;;;;;2.95;2.65;;;30.50;48.70;;;;;;4760869;30;20095;-77
2021/09/13 13:21:40;;;;;;;3.05;2.50;;;30.60;49.30;;;;;;4760764;30;20037;-78
2021/09/13 13:24:08;;;;;;;3.03;2.53;;;30.50;48.50;;;;;;4746176;30;20040;-78
2021/09/13 13:26:35;;;;;;;4.18;2.50;;;30.50;49.10;;;;;;4765469;30;20032;-77
2021/09/13 13:29:01;;;;;;;4.82;3.13;;;30.60;48.20;;;;;;4766782;30;20024;-77
2021/09/13 13:31:27;;;;;;;6.97;2.40;;;30.50;48.40;;;;;;4766005;30;20024;-77
2021/09/13 13:33:53;;;;;;;8.47;3.53;;;30.30;48.20;;;;;;4765830;30;20034;-79
2021/09/13 13:36:19;;;;;;;6.00;3.20;;;30.20;49.70;;;;;;4750039;30;20111;-78
2021/09/13 13:38:45;;;;;;;6.43;2.43;;;30.20;49.30;;;;;;4737181;30;20040;-78
2021/09/13 13:41:10;;;;;;;3.27;2.80;;;30.20;48.50;;;;;;4767399;30;20032;-78
2021/09/13 13:43:36;;;;;;;3.70;2.43;;;30.10;48.30;;;;;;4767104;30;20036;-78
2021/09/13 13:46:02;;;;;;;2.83;2.40;;;30.00;47.90;;;;;;4766595;30;20063;-77
2021/09/13 13:48:28;;;;;;;2.97;2.47;;;30.10;48.00;;;;;;4763344;30;20081;-77
2021/09/13 13:50:54;;;;;;;3.50;2.70;;;30.10;47.90;;;;;;4761203;30;20346;-78
2021/09/13 13:53:19;;;;;;;6.67;2.67;;;30.10;48.70;;;;;;4741748;30;20036;-79
2021/09/13 13:55:45;;;;;;;6.10;3.10;;;30.20;48.80;;;;;;4765047;30;20606;-78
2021/09/13 13:58:11;;;;;;;5.97;2.80;;;30.50;48.40;;;;;;4744244;30;20036;-78
2021/09/13 14:00:37;;;;;;;3.72;2.78;;;30.40;47.30;;;;;;4768558;30;20024;-79
2021/09/13 14:03:03;;;;;;;2.87;2.13;;;30.30;47.60;;;;;;4764099;30;20039;-78
2021/09/13 14:05:30;;;;;;;5.43;2.57;;;30.30;47.20;;;;;;4754922;30;20020;-78
2021/09/13 14:08:00;;;;;;;5.15;2.72;;;30.20;46.80;;;;;;4748462;30;20231;-78
2021/09/13 14:10:25;;;;;;;4.15;2.80;;;30.10;46.40;;;;;;4726884;30;20294;-78
2021/09/13 14:12:51;;;;;;;3.23;2.63;;;30.10;47.30;;;;;;4763917;30;20043;-79
2021/09/13 14:15:18;;;;;;;11.10;2.73;;;30.00;47.30;;;;;;4761395;30;20035;-78
2021/09/13 14:17:44;;;;;;;;;;;30.00;47.60;;;;;;4780804;30;20039;-78
2021/09/13 14:20:10;;;;;;;9.38;2.53;;;29.80;46.40;;;;;;4766786;30;19948;-78
2021/09/13 14:22:36;;;;;;;5.43;3.00;;;29.80;47.00;;;;;;4764757;30;20029;-78
2021/09/13 14:25:03;;;;;;;5.53;2.63;;;29.70;46.50;;;;;;4751053;30;20055;-77
2021/09/13 14:27:28;;;;;;;5.97;2.35;;;29.60;47.00;;;;;;4764837;30;20308;-78
2021/09/13 14:29:54;;;;;;;5.33;2.40;;;29.60;46.40;;;;;;4737228;30;20087;-79
2021/09/13 14:32:21;;;;;;;3.03;2.20;;;29.60;47.40;;;;;;4751982;30;20036;-79
2021/09/13 14:34:46;;;;;;;3.92;2.40;;;29.50;46.40;;;;;;4759775;30;20081;-80
2021/09/13 14:37:13;;;;;;;3.80;2.20;;;29.50;47.00;;;;;;4755069;30;20031;-81
2021/09/13 14:39:40;;;;;;;3.65;2.35;;;29.60;46.80;;;;;;4760437;30;20183;-80
2021/09/13 14:42:07;;;;;;;6.20;2.67;;;29.60;46.90;;;;;;4760785;30;20059;-81
2021/09/13 14:44:36;;;;;;;;;;;29.60;47.00;;;;;;4754608;30;20335;-80
2021/09/13 14:47:03;;;;;;;5.65;2.40;;;29.50;47.50;;;;;;4768484;30;19918;-80
2021/09/13 14:49:28;;;;;;;6.55;2.53;;;29.50;47.50;;;;;;4769313;30;20032;-81
2021/09/13 14:51:54;;;;;;;3.77;2.53;;;29.50;47.50;;;;;;4753154;30;20040;-80
2021/09/13 14:54:20;;;;;;;5.93;2.60;;;29.50;48.00;;;;;;4768749;30;20051;-81
2021/09/13 14:56:46;;;;;;;2.53;2.33;;;29.40;47.90;;;;;;4772373;30;20044;-81
2021/09/13 14:59:12;;;;;;;3.33;2.40;;;29.20;48.70;;;;;;4752330;30;20024;-81
2021/09/13 15:01:38;;;;;;;3.50;2.35;;;29.20;49.70;;;;;;4749501;30;20040;-79
2021/09/13 15:04:04;;;;;;;2.88;2.33;;;29.20;49.10;;;;;;4746704;30;20035;-80
2021/09/13 15:06:32;;;;;;;3.90;3.03;;;29.20;49.20;;;;;;4751230;30;20054;-79
2021/09/13 15:09:03;;;;;;;4.25;2.33;;;29.20;49.50;;;;;;4751956;30;20515;-81
2021/09/13 15:11:28;;;;;;;3.05;2.50;;;29.30;50.00;;;;;;4754299;30;20027;-80
2021/09/13 15:13:55;;;;;;;4.28;2.60;;;29.20;49.20;;;;;;4751975;30;20101;-80
2021/09/13 15:16:21;;;;;;;3.97;2.33;;;29.10;48.80;;;;;;4765721;30;20040;-79
2021/09/13 15:18:47;;;;;;;7.90;2.97;;;29.10;49.20;;;;;;4751221;30;20055;-80
2021/09/13 15:21:13;;;;;;;4.50;2.45;;;29.20;48.90;;;;;;4746818;30;20040;-80
2021/09/13 15:23:39;;;;;;;2.60;2.40;;;29.10;49.00;;;;;;4734543;30;20104;-80
2021/09/13 15:26:05;;;;;;;4.70;2.60;;;29.10;49.40;;;;;;4732973;30;20041;-79
2021/09/13 15:28:31;;;;;;;4.85;2.40;;;29.10;49.50;;;;;;4751220;30;20362;-80
2021/09/13 15:30:57;;;;;;;4.40;2.83;;;29.00;49.40;;;;;;4766264;30;20036;-79
2021/09/13 15:33:23;;;;;;;3.23;2.60;;;29.00;50.10;;;;;;4736385;30;20111;-79
2021/09/13 15:35:52;;;;;;;6.18;2.83;;;28.90;50.10;;;;;;4752285;30;20028;-81
2021/09/13 15:38:18;;;;;;;3.92;3.10;;;28.80;50.50;;;;;;4748537;30;20164;-79
2021/09/13 15:40:44;;;;;;;9.73;2.83;;;28.80;50.70;;;;;;4750131;30;20039;-79
2021/09/13 15:43:10;;;;;;;8.87;2.80;;;28.70;50.30;;;;;;4751096;30;20028;-80
2021/09/13 15:45:37;;;;;;;3.08;2.78;;;28.60;50.50;;;;;;4751287;30;20108;-80
2021/09/13 15:48:05;;;;;;;2.75;2.50;;;28.50;50.90;;;;;;4766155;30;20059;-81
2021/09/13 15:50:32;;;;;;;3.92;2.58;;;28.40;51.50;;;;;;4753118;30;20042;-80
2021/09/13 15:52:57;;;;;;;;;;;28.30;51.00;;;;;;4756923;30;20023;-80